sensor_id;sensor_type;location;lat;lon;timestamp;temperature;humidity
16511;DHT22;8368;48.772;8.754;2023-04-24T00:01:49;9.50;99.90
16511;DHT22;8368;48.772;8.754;2023-04-24T00:04:15;9.50;99.90
16511;DHT22;8368;48.772;8.754;2023-04-24T00:06:42;9.50;99.90
16511;DHT22;8368;48.772;8.754;2023-04-24T00:09:09;9.50;99.90
16511;DHT22;8368;48.772;8.754;2023-04-24T00:11:37;9.50;99.90
16511;DHT22;8368;48.772;8.754;2023-04-24T00:14:03;9.50;99.90
16511;DHT22;8368;48.772;8.754;2023-04-24T00:16:28;9.50;99.90
16511;DHT22;8368;48.772;8.754;2023-04-24T00:18:54;9.50;99.90
16511;DHT22;8368;48.772;8.754;2023-04-24T00:21:20;9.50;99.90
16511;DHT22;8368;48.772;8.754;2023-04-24T00:23:47;9.50;99.90
16511;DHT22;8368;48.772;8.754;2023-04-24T00:26:13;9.50;99.90
16511;DHT22;8368;48.772;8.754;2023-04-24T00:28:39;9.50;99.90
16511;DHT22;8368;48.772;8.754;2023-04-24T00:31:04;9.50;99.90
16511;DHT22;8368;48.772;8.754;2023-04-24T00:33:30;9.50;99.90
16511;DHT22;8368;48.772;8.754;2023-04-24T00:35:55;9.50;99.90
16511;DHT22;8368;48.772;8.754;2023-04-24T00:38:21;9.50;99.90
16511;DHT22;8368;48.772;8.754;2023-04-24T00:40:48;9.50;99.90
16511;DHT22;8368;48.772;8.754;2023-04-24T00:43:15;9.50;99.90
16511;DHT22;8368;48.772;8.754;2023-04-24T00:45:41;9.50;99.90
16511;DHT22;8368;48.772;8.754;2023-04-24T00:48:07;9.50;99.90
16511;DHT22;8368;48.772;8.754;2023-04-24T00:50:33;9.60;99.90
16511;DHT22;8368;48.772;8.754;2023-04-24T00:52:58;9.50;99.90
16511;DHT22;8368;48.772;8.754;2023-04-24T00:55:24;9.60;99.90
16511;DHT22;8368;48.772;8.754;2023-04-24T00:57:51;9.60;99.90
16511;DHT22;8368;48.772;8.754;2023-04-24T01:00:16;9.60;99.90
16511;DHT22;8368;48.772;8.754;2023-04-24T01:02:43;9.50;99.90
16511;DHT22;8368;48.772;8.754;2023-04-24T01:05:11;9.50;99.90
16511;DHT22;8368;48.772;8.754;2023-04-24T01:07:37;9.50;99.90
16511;DHT22;8368;48.772;8.754;2023-04-24T01:10:03;9.40;99.90
16511;DHT22;8368;48.772;8.754;2023-04-24T01:12:29;9.40;99.90
16511;DHT22;8368;48.772;8.754;2023-04-24T01:14:54;9.40;99.90
16511;DHT22;8368;48.772;8.754;2023-04-24T01:17:22;9.40;99.90
16511;DHT22;8368;48.772;8.754;2023-04-24T01:19:47;9.40;99.90
16511;DHT22;8368;48.772;8.754;2023-04-24T01:22:14;9.40;99.90
16511;DHT22;8368;48.772;8.754;2023-04-24T01:24:40;9.40;99.90
16511;DHT22;8368;48.772;8.754;2023-04-24T01:27:07;9.40;99.90
16511;DHT22;8368;48.772;8.754;2023-04-24T01:29:34;9.40;99.90
16511;DHT22;8368;48.772;8.754;2023-04-24T01:31:59;9.40;99.90
16511;DHT22;8368;48.772;8.754;2023-04-24T01:34:26;9.40;99.90
16511;DHT22;8368;48.772;8.754;2023-04-24T01:36:51;9.40;99.90
16511;DHT22;8368;48.772;8.754;2023-04-24T01:39:17;9.40;99.90
16511;DHT22;8368;48.772;8.754;2023-04-24T01:41:45;9.40;99.90
16511;DHT22;8368;48.772;8.754;2023-04-24T01:44:11;9.50;99.90
16511;DHT22;8368;48.772;8.754;2023-04-24T01:46:37;9.40;99.90
16511;DHT22;8368;48.772;8.754;2023-04-24T01:49:03;9.40;99.90
16511;DHT22;8368;48.772;8.754;2023-04-24T01:51:29;9.40;99.90
16511;DHT22;8368;48.772;8.754;2023-04-24T01:53:55;9.40;99.90
16511;DHT22;8368;48.772;8.754;2023-04-24T01:56:22;9.40;99.90
16511;DHT22;8368;48.772;8.754;2023-04-24T01:58:49;9.30;99.90
16511;DHT22;8368;48.772;8.754;2023-04-24T02:01:18;9.30;99.90
16511;DHT22;8368;48.772;8.754;2023-04-24T02:03:44;9.40;99.90
16511;DHT22;8368;48.772;8.754;2023-04-24T02:06:10;9.40;99.90
16511;DHT22;8368;48.772;8.754;2023-04-24T02:08:35;9.40;99.90
16511;DHT22;8368;48.772;8.754;2023-04-24T02:11:01;9.40;99.90
16511;DHT22;8368;48.772;8.754;2023-04-24T02:13:27;9.40;99.90
16511;DHT22;8368;48.772;8.754;2023-04-24T02:15:53;9.40;99.90
16511;DHT22;8368;48.772;8.754;2023-04-24T02:18:18;9.40;99.90
16511;DHT22;8368;48.772;8.754;2023-04-24T02:20:45;9.30;99.90
16511;DHT22;8368;48.772;8.754;2023-04-24T02:23:10;9.30;99.90
16511;DHT22;8368;48.772;8.754;2023-04-24T02:25:36;9.30;99.90
16511;DHT22;8368;48.772;8.754;2023-04-24T02:28:01;9.30;99.90
16511;DHT22;8368;48.772;8.754;2023-04-24T02:30:28;9.30;99.90
16511;DHT22;8368;48.772;8.754;2023-04-24T02:32:54;9.30;99.90
16511;DHT22;8368;48.772;8.754;2023-04-24T02:35:19;9.20;99.90
16511;DHT22;8368;48.772;8.754;2023-04-24T02:37:45;9.10;99.90
16511;DHT22;8368;48.772;8.754;2023-04-24T02:40:11;9.10;99.90
16511;DHT22;8368;48.772;8.754;2023-04-24T02:42:36;9.00;99.90
16511;DHT22;8368;48.772;8.754;2023-04-24T02:45:02;8.90;99.90
16511;DHT22;8368;48.772;8.754;2023-04-24T02:47:27;8.90;99.90
16511;DHT22;8368;48.772;8.754;2023-04-24T02:49:53;8.90;99.90
16511;DHT22;8368;48.772;8.754;2023-04-24T02:52:18;8.80;99.90
16511;DHT22;8368;48.772;8.754;2023-04-24T02:54:44;8.80;99.90
16511;DHT22;8368;48.772;8.754;2023-04-24T02:57:09;8.80;99.90
16511;DHT22;8368;48.772;8.754;2023-04-24T02:59:35;8.70;99.90
16511;DHT22;8368;48.772;8.754;2023-04-24T03:02:00;8.70;99.90
16511;DHT22;8368;48.772;8.754;2023-04-24T03:04:26;8.70;99.90
16511;DHT22;8368;48.772;8.754;2023-04-24T03:06:52;8.70;99.90
16511;DHT22;8368;48.772;8.754;2023-04-24T03:09:20;8.70;99.90
16511;DHT22;8368;48.772;8.754;2023-04-24T03:11:46;8.70;99.90
16511;DHT22;8368;48.772;8.754;2023-04-24T03:14:11;8.70;99.90
16511;DHT22;8368;48.772;8.754;2023-04-24T03:16:37;8.70;99.90
16511;DHT22;8368;48.772;8.754;2023-04-24T03:19:02;8.70;99.90
16511;DHT22;8368;48.772;8.754;2023-04-24T03:21:28;8.60;99.90
16511;DHT22;8368;48.772;8.754;2023-04-24T03:23:54;8.50;99.90
16511;DHT22;8368;48.772;8.754;2023-04-24T03:26:20;8.50;99.90
16511;DHT22;8368;48.772;8.754;2023-04-24T03:28:45;8.50;99.90
16511;DHT22;8368;48.772;8.754;2023-04-24T03:31:11;8.50;99.90
16511;DHT22;8368;48.772;8.754;2023-04-24T03:33:36;8.50;99.90
16511;DHT22;8368;48.772;8.754;2023-04-24T03:36:02;8.50;99.90
16511;DHT22;8368;48.772;8.754;2023-04-24T03:38:27;8.60;99.90
16511;DHT22;8368;48.772;8.754;2023-04-24T03:40:53;8.60;99.90
16511;DHT22;8368;48.772;8.754;2023-04-24T03:43:19;8.70;99.90
16511;DHT22;8368;48.772;8.754;2023-04-24T03:45:44;8.70;99.90
16511;DHT22;8368;48.772;8.754;2023-04-24T03:48:10;8.70;99.90
16511;DHT22;8368;48.772;8.754;2023-04-24T03:50:35;8.80;99.90
16511;DHT22;8368;48.772;8.754;2023-04-24T03:53:01;8.80;99.90
16511;DHT22;8368;48.772;8.754;2023-04-24T03:55:26;8.70;99.90
16511;DHT22;8368;48.772;8.754;2023-04-24T03:57:52;8.50;99.90
16511;DHT22;8368;48.772;8.754;2023-04-24T04:00:17;8.40;99.90
16511;DHT22;8368;48.772;8.754;2023-04-24T04:02:43;8.10;99.90
16511;DHT22;8368;48.772;8.754;2023-04-24T04:05:09;8.00;99.90
16511;DHT22;8368;48.772;8.754;2023-04-24T04:07:35;7.80;99.90
16511;DHT22;8368;48.772;8.754;2023-04-24T04:10:00;7.60;99.90
16511;DHT22;8368;48.772;8.754;2023-04-24T04:12:26;7.50;99.90
16511;DHT22;8368;48.772;8.754;2023-04-24T04:14:51;7.50;99.90
16511;DHT22;8368;48.772;8.754;2023-04-24T04:17:17;7.40;99.90
16511;DHT22;8368;48.772;8.754;2023-04-24T04:19:43;7.30;99.90
16511;DHT22;8368;48.772;8.754;2023-04-24T04:22:08;7.30;99.90
16511;DHT22;8368;48.772;8.754;2023-04-24T04:24:34;7.30;99.90
16511;DHT22;8368;48.772;8.754;2023-04-24T04:27:03;7.30;99.90
16511;DHT22;8368;48.772;8.754;2023-04-24T04:29:30;7.30;99.90
16511;DHT22;8368;48.772;8.754;2023-04-24T04:31:56;7.30;99.90
16511;DHT22;8368;48.772;8.754;2023-04-24T04:34:22;7.30;99.90
16511;DHT22;8368;48.772;8.754;2023-04-24T04:36:48;7.30;99.90
16511;DHT22;8368;48.772;8.754;2023-04-24T04:39:14;7.20;99.90
16511;DHT22;8368;48.772;8.754;2023-04-24T04:41:44;7.20;99.90
16511;DHT22;8368;48.772;8.754;2023-04-24T04:44:11;7.20;99.90
16511;DHT22;8368;48.772;8.754;2023-04-24T04:46:38;7.20;99.90
16511;DHT22;8368;48.772;8.754;2023-04-24T04:49:03;7.20;99.90
16511;DHT22;8368;48.772;8.754;2023-04-24T04:51:29;7.10;99.90
16511;DHT22;8368;48.772;8.754;2023-04-24T04:53:56;7.10;99.90
16511;DHT22;8368;48.772;8.754;2023-04-24T04:56:21;7.10;99.90
16511;DHT22;8368;48.772;8.754;2023-04-24T04:58:47;7.10;99.90
16511;DHT22;8368;48.772;8.754;2023-04-24T05:01:13;7.10;99.90
16511;DHT22;8368;48.772;8.754;2023-04-24T05:03:38;7.10;99.90
16511;DHT22;8368;48.772;8.754;2023-04-24T05:06:04;7.10;99.90
16511;DHT22;8368;48.772;8.754;2023-04-24T05:08:30;7.20;99.90
16511;DHT22;8368;48.772;8.754;2023-04-24T05:10:55;7.20;99.90
16511;DHT22;8368;48.772;8.754;2023-04-24T05:13:21;7.30;99.90
16511;DHT22;8368;48.772;8.754;2023-04-24T05:15:46;7.30;99.90
16511;DHT22;8368;48.772;8.754;2023-04-24T05:18:12;7.40;99.90
16511;DHT22;8368;48.772;8.754;2023-04-24T05:20:38;7.40;99.90
16511;DHT22;8368;48.772;8.754;2023-04-24T05:23:03;7.50;99.90
16511;DHT22;8368;48.772;8.754;2023-04-24T05:25:28;7.50;99.90
16511;DHT22;8368;48.772;8.754;2023-04-24T05:27:54;7.60;99.90
16511;DHT22;8368;48.772;8.754;2023-04-24T05:30:20;7.60;99.90
16511;DHT22;8368;48.772;8.754;2023-04-24T05:32:45;7.60;99.90
16511;DHT22;8368;48.772;8.754;2023-04-24T05:35:11;7.60;99.90
16511;DHT22;8368;48.772;8.754;2023-04-24T05:37:37;7.50;99.90
16511;DHT22;8368;48.772;8.754;2023-04-24T05:40:03;7.60;99.90
16511;DHT22;8368;48.772;8.754;2023-04-24T05:42:30;7.50;99.90
16511;DHT22;8368;48.772;8.754;2023-04-24T05:44:56;7.60;99.90
16511;DHT22;8368;48.772;8.754;2023-04-24T05:47:22;7.60;99.90
16511;DHT22;8368;48.772;8.754;2023-04-24T05:49:47;7.70;99.90
16511;DHT22;8368;48.772;8.754;2023-04-24T05:52:13;7.80;99.90
16511;DHT22;8368;48.772;8.754;2023-04-24T05:54:39;7.90;99.90
16511;DHT22;8368;48.772;8.754;2023-04-24T05:57:04;8.00;99.90
16511;DHT22;8368;48.772;8.754;2023-04-24T05:59:34;8.10;99.90
16511;DHT22;8368;48.772;8.754;2023-04-24T06:01:59;8.30;99.90
16511;DHT22;8368;48.772;8.754;2023-04-24T06:04:25;8.30;99.90
16511;DHT22;8368;48.772;8.754;2023-04-24T06:06:51;8.50;99.90
16511;DHT22;8368;48.772;8.754;2023-04-24T06:09:24;8.60;99.90
16511;DHT22;8368;48.772;8.754;2023-04-24T06:11:50;8.80;99.90
16511;DHT22;8368;48.772;8.754;2023-04-24T06:14:19;8.90;99.90
16511;DHT22;8368;48.772;8.754;2023-04-24T06:16:45;8.90;99.90
16511;DHT22;8368;48.772;8.754;2023-04-24T06:19:10;9.00;99.90
16511;DHT22;8368;48.772;8.754;2023-04-24T06:21:36;9.10;99.90
16511;DHT22;8368;48.772;8.754;2023-04-24T06:24:01;9.00;99.90
16511;DHT22;8368;48.772;8.754;2023-04-24T06:26:27;8.90;99.90
16511;DHT22;8368;48.772;8.754;2023-04-24T06:28:53;8.90;99.90
16511;DHT22;8368;48.772;8.754;2023-04-24T06:31:21;8.90;99.90
16511;DHT22;8368;48.772;8.754;2023-04-24T06:33:48;9.00;99.90
16511;DHT22;8368;48.772;8.754;2023-04-24T06:36:14;9.00;99.90
16511;DHT22;8368;48.772;8.754;2023-04-24T06:38:39;9.00;99.90
16511;DHT22;8368;48.772;8.754;2023-04-24T06:41:05;9.00;99.90
16511;DHT22;8368;48.772;8.754;2023-04-24T06:43:31;9.00;99.90
16511;DHT22;8368;48.772;8.754;2023-04-24T06:46:00;9.00;99.90
16511;DHT22;8368;48.772;8.754;2023-04-24T06:48:25;9.10;99.90
16511;DHT22;8368;48.772;8.754;2023-04-24T06:50:52;9.10;99.90
16511;DHT22;8368;48.772;8.754;2023-04-24T06:53:17;9.10;99.90
16511;DHT22;8368;48.772;8.754;2023-04-24T06:55:43;9.10;99.90
16511;DHT22;8368;48.772;8.754;2023-04-24T06:58:10;9.10;99.90
16511;DHT22;8368;48.772;8.754;2023-04-24T07:00:36;9.00;99.90
16511;DHT22;8368;48.772;8.754;2023-04-24T07:03:02;9.00;99.90
16511;DHT22;8368;48.772;8.754;2023-04-24T07:05:28;9.00;99.90
16511;DHT22;8368;48.772;8.754;2023-04-24T07:07:53;8.90;99.90
16511;DHT22;8368;48.772;8.754;2023-04-24T07:10:19;8.90;99.90
16511;DHT22;8368;48.772;8.754;2023-04-24T07:12:45;8.90;99.90
16511;DHT22;8368;48.772;8.754;2023-04-24T07:15:12;8.90;99.90
16511;DHT22;8368;48.772;8.754;2023-04-24T07:17:37;8.90;99.90
16511;DHT22;8368;48.772;8.754;2023-04-24T07:20:04;8.90;99.90
16511;DHT22;8368;48.772;8.754;2023-04-24T07:22:30;8.90;99.90
16511;DHT22;8368;48.772;8.754;2023-04-24T07:24:56;8.90;99.90
16511;DHT22;8368;48.772;8.754;2023-04-24T07:27:22;8.80;99.90
16511;DHT22;8368;48.772;8.754;2023-04-24T07:29:47;8.80;99.90
16511;DHT22;8368;48.772;8.754;2023-04-24T07:32:13;8.90;99.90
16511;DHT22;8368;48.772;8.754;2023-04-24T07:34:39;8.90;99.90
16511;DHT22;8368;48.772;8.754;2023-04-24T07:37:04;9.00;99.90
16511;DHT22;8368;48.772;8.754;2023-04-24T07:39:30;9.10;99.90
16511;DHT22;8368;48.772;8.754;2023-04-24T07:41:56;9.30;99.90
16511;DHT22;8368;48.772;8.754;2023-04-24T07:44:21;9.40;99.90
16511;DHT22;8368;48.772;8.754;2023-04-24T07:46:47;9.40;99.90
16511;DHT22;8368;48.772;8.754;2023-04-24T07:49:13;9.20;99.90
16511;DHT22;8368;48.772;8.754;2023-04-24T07:51:39;9.20;99.90
16511;DHT22;8368;48.772;8.754;2023-04-24T07:54:05;9.20;99.90
16511;DHT22;8368;48.772;8.754;2023-04-24T07:56:33;9.20;99.90
16511;DHT22;8368;48.772;8.754;2023-04-24T07:58:59;9.30;99.90
16511;DHT22;8368;48.772;8.754;2023-04-24T08:01:26;9.30;99.90
16511;DHT22;8368;48.772;8.754;2023-04-24T08:03:52;9.40;99.90
16511;DHT22;8368;48.772;8.754;2023-04-24T08:06:17;9.60;99.90
16511;DHT22;8368;48.772;8.754;2023-04-24T08:08:43;9.80;99.90
16511;DHT22;8368;48.772;8.754;2023-04-24T08:11:08;9.80;99.90
16511;DHT22;8368;48.772;8.754;2023-04-24T08:13:34;9.60;99.90
16511;DHT22;8368;48.772;8.754;2023-04-24T08:16:00;9.50;99.90
16511;DHT22;8368;48.772;8.754;2023-04-24T08:18:26;9.20;99.90
16511;DHT22;8368;48.772;8.754;2023-04-24T08:20:51;8.90;99.90
16511;DHT22;8368;48.772;8.754;2023-04-24T08:23:17;8.50;99.90
16511;DHT22;8368;48.772;8.754;2023-04-24T08:25:42;8.30;99.90
16511;DHT22;8368;48.772;8.754;2023-04-24T08:28:09;8.30;99.90
16511;DHT22;8368;48.772;8.754;2023-04-24T08:30:34;8.30;99.90
16511;DHT22;8368;48.772;8.754;2023-04-24T08:33:00;8.40;99.90
16511;DHT22;8368;48.772;8.754;2023-04-24T08:35:25;8.30;99.90
16511;DHT22;8368;48.772;8.754;2023-04-24T08:37:52;8.20;99.90
16511;DHT22;8368;48.772;8.754;2023-04-24T08:40:27;8.40;99.90
16511;DHT22;8368;48.772;8.754;2023-04-24T08:42:54;8.60;99.90
16511;DHT22;8368;48.772;8.754;2023-04-24T08:45:21;8.60;99.90
16511;DHT22;8368;48.772;8.754;2023-04-24T08:47:47;8.50;99.90
16511;DHT22;8368;48.772;8.754;2023-04-24T08:50:14;8.50;99.90
16511;DHT22;8368;48.772;8.754;2023-04-24T08:52:42;8.50;99.90
16511;DHT22;8368;48.772;8.754;2023-04-24T08:55:07;8.40;99.90
16511;DHT22;8368;48.772;8.754;2023-04-24T08:57:33;8.40;99.90
16511;DHT22;8368;48.772;8.754;2023-04-24T09:00:01;8.50;99.90
16511;DHT22;8368;48.772;8.754;2023-04-24T09:02:27;8.40;99.90
16511;DHT22;8368;48.772;8.754;2023-04-24T09:04:55;8.40;99.90
16511;DHT22;8368;48.772;8.754;2023-04-24T09:07:24;8.30;99.90
16511;DHT22;8368;48.772;8.754;2023-04-24T09:09:51;8.30;99.90
16511;DHT22;8368;48.772;8.754;2023-04-24T09:12:17;8.30;99.90
16511;DHT22;8368;48.772;8.754;2023-04-24T09:14:44;8.40;99.90
16511;DHT22;8368;48.772;8.754;2023-04-24T09:17:11;8.60;99.90
16511;DHT22;8368;48.772;8.754;2023-04-24T09:19:37;8.80;99.90
16511;DHT22;8368;48.772;8.754;2023-04-24T09:22:06;8.90;99.90
16511;DHT22;8368;48.772;8.754;2023-04-24T09:24:34;8.90;99.90
16511;DHT22;8368;48.772;8.754;2023-04-24T09:27:01;8.90;99.90
16511;DHT22;8368;48.772;8.754;2023-04-24T09:29:29;8.90;99.90
16511;DHT22;8368;48.772;8.754;2023-04-24T09:31:55;8.70;99.90
16511;DHT22;8368;48.772;8.754;2023-04-24T09:34:22;8.70;99.90
16511;DHT22;8368;48.772;8.754;2023-04-24T09:36:48;8.70;99.90
16511;DHT22;8368;48.772;8.754;2023-04-24T09:39:15;8.70;99.90
16511;DHT22;8368;48.772;8.754;2023-04-24T09:42:01;8.50;99.90
16511;DHT22;8368;48.772;8.754;2023-04-24T09:44:28;8.50;99.90
16511;DHT22;8368;48.772;8.754;2023-04-24T09:46:58;8.60;99.90
16511;DHT22;8368;48.772;8.754;2023-04-24T09:49:29;8.70;99.90
16511;DHT22;8368;48.772;8.754;2023-04-24T09:52:05;8.80;99.90
16511;DHT22;8368;48.772;8.754;2023-04-24T09:54:31;8.90;99.90
16511;DHT22;8368;48.772;8.754;2023-04-24T09:56:58;9.20;99.90
16511;DHT22;8368;48.772;8.754;2023-04-24T09:59:25;9.60;99.90
16511;DHT22;8368;48.772;8.754;2023-04-24T10:01:50;9.90;99.90
16511;DHT22;8368;48.772;8.754;2023-04-24T10:06:43;10.50;99.90
16511;DHT22;8368;48.772;8.754;2023-04-24T10:09:09;10.70;99.90
16511;DHT22;8368;48.772;8.754;2023-04-24T10:11:42;10.80;99.90
16511;DHT22;8368;48.772;8.754;2023-04-24T10:14:11;10.90;99.90
16511;DHT22;8368;48.772;8.754;2023-04-24T10:16:39;11.00;99.90
16511;DHT22;8368;48.772;8.754;2023-04-24T10:19:06;10.60;99.90
16511;DHT22;8368;48.772;8.754;2023-04-24T10:21:32;10.30;99.90
16511;DHT22;8368;48.772;8.754;2023-04-24T10:23:57;10.30;99.90
16511;DHT22;8368;48.772;8.754;2023-04-24T10:26:26;10.30;99.90
16511;DHT22;8368;48.772;8.754;2023-04-24T10:28:52;10.30;99.90
16511;DHT22;8368;48.772;8.754;2023-04-24T10:31:19;10.10;99.90
16511;DHT22;8368;48.772;8.754;2023-04-24T10:33:46;10.00;99.90
16511;DHT22;8368;48.772;8.754;2023-04-24T10:36:13;9.70;99.90
16511;DHT22;8368;48.772;8.754;2023-04-24T10:38:40;9.60;99.90
16511;DHT22;8368;48.772;8.754;2023-04-24T10:41:11;9.50;99.90
16511;DHT22;8368;48.772;8.754;2023-04-24T10:43:41;9.50;99.90
16511;DHT22;8368;48.772;8.754;2023-04-24T10:46:08;9.40;99.90
16511;DHT22;8368;48.772;8.754;2023-04-24T10:48:35;9.40;99.90
16511;DHT22;8368;48.772;8.754;2023-04-24T10:51:01;9.50;99.90
16511;DHT22;8368;48.772;8.754;2023-04-24T10:53:30;9.60;99.90
16511;DHT22;8368;48.772;8.754;2023-04-24T10:56:03;9.80;99.90
16511;DHT22;8368;48.772;8.754;2023-04-24T10:58:39;10.00;99.90
16511;DHT22;8368;48.772;8.754;2023-04-24T11:01:06;10.10;99.90
16511;DHT22;8368;48.772;8.754;2023-04-24T11:03:33;10.40;99.90
16511;DHT22;8368;48.772;8.754;2023-04-24T11:08:44;10.50;99.90
16511;DHT22;8368;48.772;8.754;2023-04-24T11:11:12;10.20;99.90
16511;DHT22;8368;48.772;8.754;2023-04-24T11:24:27;9.30;99.90
16511;DHT22;8368;48.772;8.754;2023-04-24T11:26:58;9.40;99.90
16511;DHT22;8368;48.772;8.754;2023-04-24T11:29:44;9.70;99.90
16511;DHT22;8368;48.772;8.754;2023-04-24T11:32:17;10.00;99.90
16511;DHT22;8368;48.772;8.754;2023-04-24T11:34:48;10.20;99.90
16511;DHT22;8368;48.772;8.754;2023-04-24T11:37:14;10.30;99.90
16511;DHT22;8368;48.772;8.754;2023-04-24T11:39:40;10.30;99.90
16511;DHT22;8368;48.772;8.754;2023-04-24T11:42:07;10.20;99.90
16511;DHT22;8368;48.772;8.754;2023-04-24T11:44:34;10.10;99.90
16511;DHT22;8368;48.772;8.754;2023-04-24T11:47:05;10.10;99.90
16511;DHT22;8368;48.772;8.754;2023-04-24T11:49:31;10.00;99.90
16511;DHT22;8368;48.772;8.754;2023-04-24T11:51:56;10.00;99.90
16511;DHT22;8368;48.772;8.754;2023-04-24T11:54:22;10.10;99.90
16511;DHT22;8368;48.772;8.754;2023-04-24T11:56:48;10.10;99.90
16511;DHT22;8368;48.772;8.754;2023-04-24T11:59:14;10.20;99.90
16511;DHT22;8368;48.772;8.754;2023-04-24T12:01:44;10.30;99.90
16511;DHT22;8368;48.772;8.754;2023-04-24T12:04:10;10.50;99.90
16511;DHT22;8368;48.772;8.754;2023-04-24T12:06:36;10.40;99.90
16511;DHT22;8368;48.772;8.754;2023-04-24T12:09:02;10.40;99.90
16511;DHT22;8368;48.772;8.754;2023-04-24T12:11:27;10.60;99.90
16511;DHT22;8368;48.772;8.754;2023-04-24T12:13:54;10.90;99.90
16511;DHT22;8368;48.772;8.754;2023-04-24T12:16:20;10.80;99.90
16511;DHT22;8368;48.772;8.754;2023-04-24T12:18:45;10.80;99.90
16511;DHT22;8368;48.772;8.754;2023-04-24T12:21:15;10.70;99.90
16511;DHT22;8368;48.772;8.754;2023-04-24T12:23:43;10.40;99.90
16511;DHT22;8368;48.772;8.754;2023-04-24T12:26:09;10.20;99.90
16511;DHT22;8368;48.772;8.754;2023-04-24T12:28:36;10.00;99.90
16511;DHT22;8368;48.772;8.754;2023-04-24T12:31:02;9.60;99.90
16511;DHT22;8368;48.772;8.754;2023-04-24T12:33:32;9.20;99.90
16511;DHT22;8368;48.772;8.754;2023-04-24T12:35:58;9.10;99.90
16511;DHT22;8368;48.772;8.754;2023-04-24T12:38:26;9.10;99.90
16511;DHT22;8368;48.772;8.754;2023-04-24T12:41:06;9.30;99.90
16511;DHT22;8368;48.772;8.754;2023-04-24T12:43:32;9.30;99.90
16511;DHT22;8368;48.772;8.754;2023-04-24T12:45:58;9.20;99.90
16511;DHT22;8368;48.772;8.754;2023-04-24T12:48:25;9.20;99.90
16511;DHT22;8368;48.772;8.754;2023-04-24T12:50:51;9.20;99.90
16511;DHT22;8368;48.772;8.754;2023-04-24T12:53:16;9.50;99.90
16511;DHT22;8368;48.772;8.754;2023-04-24T12:55:42;9.70;99.90
16511;DHT22;8368;48.772;8.754;2023-04-24T12:58:07;10.30;99.90
16511;DHT22;8368;48.772;8.754;2023-04-24T13:00:33;10.60;99.90
16511;DHT22;8368;48.772;8.754;2023-04-24T13:02:59;10.80;99.90
16511;DHT22;8368;48.772;8.754;2023-04-24T13:05:24;10.80;99.90
16511;DHT22;8368;48.772;8.754;2023-04-24T13:07:50;10.50;99.90
16511;DHT22;8368;48.772;8.754;2023-04-24T13:10:16;10.20;99.90
16511;DHT22;8368;48.772;8.754;2023-04-24T13:12:41;9.80;99.90
16511;DHT22;8368;48.772;8.754;2023-04-24T13:15:10;9.50;99.90
16511;DHT22;8368;48.772;8.754;2023-04-24T13:17:36;9.20;99.90
16511;DHT22;8368;48.772;8.754;2023-04-24T13:20:01;9.10;99.90
16511;DHT22;8368;48.772;8.754;2023-04-24T13:22:28;9.40;99.90
16511;DHT22;8368;48.772;8.754;2023-04-24T13:24:53;10.00;99.90
16511;DHT22;8368;48.772;8.754;2023-04-24T13:27:19;10.70;99.90
16511;DHT22;8368;48.772;8.754;2023-04-24T13:29:45;11.40;99.90
16511;DHT22;8368;48.772;8.754;2023-04-24T13:32:11;12.20;99.90
16511;DHT22;8368;48.772;8.754;2023-04-24T13:34:37;12.20;99.90
16511;DHT22;8368;48.772;8.754;2023-04-24T13:37:03;11.80;99.90
16511;DHT22;8368;48.772;8.754;2023-04-24T13:39:29;11.40;99.90
16511;DHT22;8368;48.772;8.754;2023-04-24T13:41:55;11.00;99.90
16511;DHT22;8368;48.772;8.754;2023-04-24T13:44:21;11.10;99.90
16511;DHT22;8368;48.772;8.754;2023-04-24T13:46:49;11.30;99.90
16511;DHT22;8368;48.772;8.754;2023-04-24T13:49:15;11.50;99.90
16511;DHT22;8368;48.772;8.754;2023-04-24T13:51:42;11.60;99.90
16511;DHT22;8368;48.772;8.754;2023-04-24T13:54:07;12.10;99.90
16511;DHT22;8368;48.772;8.754;2023-04-24T13:56:33;12.20;99.90
16511;DHT22;8368;48.772;8.754;2023-04-24T13:58:59;12.50;99.90
16511;DHT22;8368;48.772;8.754;2023-04-24T14:01:24;12.50;99.90
16511;DHT22;8368;48.772;8.754;2023-04-24T14:03:51;12.40;99.90
16511;DHT22;8368;48.772;8.754;2023-04-24T14:06:18;12.30;99.90
16511;DHT22;8368;48.772;8.754;2023-04-24T14:08:43;12.10;99.90
16511;DHT22;8368;48.772;8.754;2023-04-24T14:11:09;11.80;99.90
16511;DHT22;8368;48.772;8.754;2023-04-24T14:13:36;11.60;99.90
16511;DHT22;8368;48.772;8.754;2023-04-24T14:16:02;11.50;99.90
16511;DHT22;8368;48.772;8.754;2023-04-24T14:18:27;11.50;99.90
16511;DHT22;8368;48.772;8.754;2023-04-24T14:20:53;11.70;99.90
16511;DHT22;8368;48.772;8.754;2023-04-24T14:23:19;12.00;99.90
16511;DHT22;8368;48.772;8.754;2023-04-24T14:25:45;11.90;99.90
16511;DHT22;8368;48.772;8.754;2023-04-24T14:28:11;11.70;99.90
16511;DHT22;8368;48.772;8.754;2023-04-24T14:30:36;11.70;99.90
16511;DHT22;8368;48.772;8.754;2023-04-24T14:33:03;11.70;99.90
16511;DHT22;8368;48.772;8.754;2023-04-24T14:35:29;11.80;99.90
16511;DHT22;8368;48.772;8.754;2023-04-24T14:37:56;11.60;99.90
16511;DHT22;8368;48.772;8.754;2023-04-24T14:40:22;11.40;99.90
16511;DHT22;8368;48.772;8.754;2023-04-24T14:42:47;11.00;99.90
16511;DHT22;8368;48.772;8.754;2023-04-24T14:45:13;10.60;99.90
16511;DHT22;8368;48.772;8.754;2023-04-24T14:47:39;10.50;99.90
16511;DHT22;8368;48.772;8.754;2023-04-24T14:50:05;10.30;99.90
16511;DHT22;8368;48.772;8.754;2023-04-24T14:52:31;10.20;99.90
16511;DHT22;8368;48.772;8.754;2023-04-24T14:54:56;10.10;99.90
16511;DHT22;8368;48.772;8.754;2023-04-24T14:57:22;9.90;99.90
16511;DHT22;8368;48.772;8.754;2023-04-24T14:59:48;9.30;99.90
16511;DHT22;8368;48.772;8.754;2023-04-24T15:02:14;9.10;99.90
16511;DHT22;8368;48.772;8.754;2023-04-24T15:04:39;9.00;99.90
16511;DHT22;8368;48.772;8.754;2023-04-24T15:07:05;9.10;99.90
16511;DHT22;8368;48.772;8.754;2023-04-24T15:09:30;9.20;99.90
16511;DHT22;8368;48.772;8.754;2023-04-24T15:11:57;9.20;99.90
16511;DHT22;8368;48.772;8.754;2023-04-24T15:14:23;9.20;99.90
16511;DHT22;8368;48.772;8.754;2023-04-24T15:16:48;9.00;99.90
16511;DHT22;8368;48.772;8.754;2023-04-24T15:19:14;8.90;99.90
16511;DHT22;8368;48.772;8.754;2023-04-24T15:21:39;8.80;99.90
16511;DHT22;8368;48.772;8.754;2023-04-24T15:24:07;8.90;99.90
16511;DHT22;8368;48.772;8.754;2023-04-24T15:26:32;8.90;99.90
16511;DHT22;8368;48.772;8.754;2023-04-24T15:28:58;9.20;99.90
16511;DHT22;8368;48.772;8.754;2023-04-24T15:31:23;9.40;99.90
16511;DHT22;8368;48.772;8.754;2023-04-24T15:33:49;9.50;99.90
16511;DHT22;8368;48.772;8.754;2023-04-24T15:36:16;9.60;99.90
16511;DHT22;8368;48.772;8.754;2023-04-24T15:38:43;9.60;99.90
16511;DHT22;8368;48.772;8.754;2023-04-24T15:41:08;9.70;99.90
16511;DHT22;8368;48.772;8.754;2023-04-24T15:43:34;9.70;99.90
16511;DHT22;8368;48.772;8.754;2023-04-24T15:46:03;9.80;99.90
16511;DHT22;8368;48.772;8.754;2023-04-24T15:48:29;9.80;99.90
16511;DHT22;8368;48.772;8.754;2023-04-24T15:50:54;9.90;99.90
16511;DHT22;8368;48.772;8.754;2023-04-24T15:53:20;10.00;99.90
16511;DHT22;8368;48.772;8.754;2023-04-24T15:55:52;10.00;99.90
16511;DHT22;8368;48.772;8.754;2023-04-24T15:58:19;10.10;99.90
16511;DHT22;8368;48.772;8.754;2023-04-24T16:00:45;10.10;99.90
16511;DHT22;8368;48.772;8.754;2023-04-24T16:03:12;10.30;99.90
16511;DHT22;8368;48.772;8.754;2023-04-24T16:05:38;10.50;99.90
16511;DHT22;8368;48.772;8.754;2023-04-24T16:08:04;10.70;99.90